Weather observations for the past three days for
Hurlburt Field
Imperial (Metric)
Date Time (cdt) Wind (mph) Vis. (mi.) Weather Sky Cond. Temperature (ºF) Relative Humidity Wind Chill (°F) Heat Index (°F) Pressure Precipitation (in)
Air Dwpt 6 hour altimeter (in) sea level (mb) 1 hr 3 hr 6 hr
Max. Min.
01 03:55 Calm 10.00 Fair CLR 76.8 75.2 95% 77 30 1015.7
01 02:55 Calm 10.00 Fair CLR 77.7 75.7 94% 80 30 1015.7
01 01:55 Calm 10.00 Fair CLR 77.9 75.6 93% 80 30.01 1016.0
01 00:55 Calm 10.00 Fair CLR 78.3 75.9 85.8 78.3 93% 81 30.01 1016.0
31 23:55 Calm 10.00 Fair CLR 79.7 76.8 91% 85 30.02 1016.4
31 22:55 Calm 10.00 Fair CLR 81.9 77.5 87% 90 30.02 1016.4
31 21:55 Calm 10.00 Fair CLR 83.8 77.7 82% 94 30.03 1016.7
31 20:55 Calm 10.00 Fair CLR 84.7 77 78% 95 30.02 1016.4
31 19:55 S 3 10.00 Fair CLR 84.7 76.6 77% 95 30 1015.7
31 18:55 S 6 10.00 Fair CLR 86 76.6 89.6 86 74% 97 29.99 1015.4
31 17:55 S 7 10.00 Fair CLR 86.4 76.1 72% 97 30 1015.7
31 16:55 S 8 10.00 Fair CLR 87.1 76.1 70% 98 30 1015.7
31 15:55 SE 8 10.00 Fair CLR 88.9 76.8 68% 101 30 1015.7
31 14:55 SE 7 10.00 A Few Clouds FEW150 88.9 76.8 68% 101 30.02 1016.4
31 13:55 SE 12 10.00 A Few Clouds FEW180 88.7 77.2 69% 101 30.03 1016.7
31 12:55 SE 10 10.00 Fair CLR 88.7 77.9 90.1 75.9 71% 102 30.04 1017.0
31 10:55 E 9 10.00 Fair CLR 88 76.5 69% 99 30.06 1017.7
31 09:55 NE 6 10.00 Fair CLR 86 76.3 73% 96 30.06 1017.7
31 08:55 NE 7 10.00 Fair CLR 83.3 76.5 80% 92 30.06 1017.7
31 07:55 N 7 10.00 Fair CLR 79.5 74.8 86% 84 30.05 1017.4
31 06:55 Calm 10.00 Fair CLR 75.7 73.6 78.1 74.8 93% 75 30.03 1016.7
31 05:55 W 3 10.00 Fair CLR 75.7 72.9 91% 75 30.01 1016.0
31 04:55 NE 3 10.00 Fair CLR 76.6 73 89% 77 30 1015.7
31 03:55 NE 5 10.00 Fair CLR 77.4 73 87% 79 29.99 1015.4
31 02:55 NE 6 10.00 Fair CLR 78.1 73.8 87% 81 30 1015.7
31 01:55 N 3 10.00 Fair CLR 77 74.1 91% 78 30 1015.7
31 00:55 Calm 10.00 Fair CLR 77.2 74.3 84.9 76.6 91% 79 30.02 1016.4
30 23:55 Calm 10.00 Fair CLR 79.2 74.8 87% 83 30.02 1016.4
30 22:55 Calm 10.00 A Few Clouds FEW042 80.4 74.3 82% 85 30.03 1016.7
30 21:55 Calm 10.00 Fair CLR 80.6 74.5 82% 86 30.02 1016.4
30 20:55 E 3 10.00 Fair CLR 82.8 72.3 71% 88 30.01 1016.0
30 19:55 Calm 10.00 Fair CLR 83.7 73.9 73% 91 30 1015.7
30 18:55 E 5 10.00 Fair CLR 84.9 75.6 88 84.9 74% 94 30 1015.7
30 17:55 SE 6 10.00 A Few Clouds FEW030 85.8 75.2 71% 95 29.99 1015.4
30 16:55 SE 5 10.00 Fair CLR 86.9 76.3 71% 98 30 1015.7
30 15:55 E 6 10.00 Fair CLR 87.4 76.3 70% 98 30 1015.7
30 14:55 S 8 10.00 Fair CLR 87.4 77.2 72% 100 30.02 1016.4
30 13:55 SE 8 10.00 A Few Clouds FEW200 86.7 77.4 74% 99 30.04 1017.0
30 12:55 SE 10 10.00 A Few Clouds FEW180 85.1 76.3 85.5 76.1 75% 95 30.06 1017.7
30 11:55 SE 9 10.00 A Few Clouds FEW019 FEW190 84.9 76.1 75% 94 30.07 1018.1
30 10:55 SE 10 10.00 A Few Clouds FEW210 84.2 75.7 76% 93 30.08 1018.4
30 09:55 E 10 10.00 Fair CLR 83.5 76.3 79% 92 30.06 1017.7
30 08:55 E 10 10.00 Fair CLR 81.5 76.1 84% 88 30.06 1017.7
30 07:55 E 8 9.00 Fair CLR 77.5 74.3 90% 79 30.06 1017.7
30 06:55 E 8 8.00 Fair CLR 75.9 73.4 80.4 74.7 92% 76 30.04 1017.0
30 05:55 NE 7 9.00 Fair CLR 75.4 72.9 92% 75 30.03 1016.7
30 04:55 NE 5 10.00 Fair CLR 74.8 72.9 94% 30.01 1016.0
30 03:55 NE 6 10.00 Fair CLR 75.7 73.8 94% 75 30 1015.7
30 02:55 N 5 10.00 Fair CLR 76.1 73.6 92% 76 30 1015.7
30 01:55 NE 6 10.00 Fair CLR 77.7 74.5 90% 80 30.02 1016.4
30 00:55 E 7 10.00 Fair CLR 80.6 74.8 82.2 79.2 83% 86 30.03 1016.7
29 23:55 SE 8 10.00 Fair CLR 81 74.1 80% 86 30.05 1017.4
29 22:55 E 6 10.00 Fair CLR 79.3 74.3 85% 83 30.06 1017.7
29 21:55 NE 5 10.00 Fair CLR 81.1 74.7 81% 87 30.06 1017.7
29 20:55 SE 8 10.00 A Few Clouds FEW020 81.9 74.3 78% 88 30.03 1016.7
29 19:55 SE 8 10.00 Fair CLR 81.3 74.1 79% 87 30 1015.7
29 18:55 SE 9 10.00 Fair CLR 82.2 75 86.2 82.2 79% 89 29.99 1015.4
29 17:55 SE 10 10.00 A Few Clouds FEW019 82.8 75.2 78% 90 30 1015.7
29 16:55 SE 10 10.00 Mostly Cloudy BKN016 BKN040 82.9 75.7 79% 91 30 1015.7
29 15:55 SE 12 10.00 Mostly Cloudy SCT017 BKN034 83.8 74.7 74% 91 30.01 1016.0
29 14:55 SE 14 10.00 A Few Clouds FEW019 85.8 75.7 72% 95 30.03 1016.7
29 13:55 SE 13 10.00 A Few Clouds FEW016 FEW150 84.9 76.1 75% 94 30.04 1017.0
29 12:55 SE 10 10.00 A Few Clouds FEW190 84.2 76.1 84.2 75.7 77% 93 30.05 1017.4 0.22
29 11:55 SE 10 10.00 Overcast SCT016 OVC150 83.7 75.6 77% 92 30.05 1017.4
29 10:55 E 12 10.00 Mostly Cloudy SCT016 BKN150 83.3 74.1 74% 90 30.06 1017.7
29 09:55 E 9 10.00 Partly Cloudy FEW014 SCT049 82.9 75.7 79% 91 30.04 1017.0 0.22
29 08:55 E 8 10.00 Mostly Cloudy SCT050 BKN100 80.2 76.3 88% 86 30.04 1017.0
29 07:55 NE 5 10.00 Mostly Cloudy SCT095 BKN140 77.2 73.6 89% 79 30.03 1016.7 0.22
29 06:56 Vrbl 7 6.00 Thunderstorm in Vicinity Light Rain SCT008 OVC015 76.5 73.6 79.5 75.7 91% 77 30.03 1016.7 0.15 0.15
29 06:55 SE 6 6.00 Thunderstorm in Vicinity Light Rain SCT008 OVC015 76.6 74.1 79.5 75.7 92% 77 30.03 1016.7 0.14 0.14
29 05:55 NE 3 10.00 Partly Cloudy FEW017 SCT160 77.2 75.2 94% 78 30.01 1016.0
29 04:55 NE 3 10.00 Overcast OVC100 76.1 73.9 93% 76 30 1015.7
Date Time (cdt) Wind (mph) Vis. (mi.) Weather Sky Cond. Air Dwpt Max. Min. Relative Humidity Wind Chill (°F) Heat Index (°F) altimeter (in) sea level (mb) 1 hr 3 hr 6 hr
6 hour
Temperature (ºF) Pressure Precipitation (in)